createdAt,value
2018-07-24T00:02:15.323Z,7.25
2018-07-24T00:04:42.527Z,7.20
2018-07-24T00:07:09.699Z,7.15
2018-07-24T00:09:36.887Z,6.60
2018-07-24T00:12:04.079Z,6.00
2018-07-24T00:14:31.183Z,6.08
2018-07-24T00:16:58.333Z,5.70
2018-07-24T00:19:25.519Z,6.85
2018-07-24T00:21:52.728Z,6.00
2018-07-24T00:24:19.880Z,6.60
2018-07-24T00:26:47.048Z,6.12
2018-07-24T00:29:14.213Z,5.90
2018-07-24T00:31:41.620Z,5.50
2018-07-24T00:34:08.775Z,7.05
2018-07-24T00:36:35.923Z,7.72
2018-07-24T00:39:04.978Z,7.00
2018-07-24T00:41:32.158Z,6.22
2018-07-24T00:43:59.262Z,9.20
2018-07-24T00:46:26.390Z,10.50
2018-07-24T00:48:53.557Z,8.83
2018-07-24T00:51:20.676Z,7.28
2018-07-24T00:53:47.772Z,6.95
2018-07-24T00:56:14.923Z,7.42
2018-07-24T00:58:42.068Z,6.80
2018-07-24T01:01:09.225Z,6.45
2018-07-24T01:03:36.352Z,6.10
2018-07-24T01:06:03.501Z,5.80
2018-07-24T01:08:30.644Z,6.17
2018-07-24T01:10:57.811Z,6.03
2018-07-24T01:13:24.982Z,5.70
2018-07-24T01:15:52.119Z,5.85
2018-07-24T01:18:19.276Z,5.72
2018-07-24T01:20:46.376Z,5.65
2018-07-24T01:23:13.571Z,6.33
2018-07-24T01:25:40.670Z,5.37
2018-07-24T01:28:07.776Z,5.55
2018-07-24T01:30:34.918Z,6.12
2018-07-24T01:33:02.031Z,5.35
2018-07-24T01:35:29.254Z,5.58
2018-07-24T01:37:56.494Z,5.70
2018-07-24T01:40:23.752Z,5.15
2018-07-24T01:42:51.344Z,5.95
2018-07-24T01:45:18.590Z,5.25
2018-07-24T01:47:45.813Z,5.28
2018-07-24T01:50:12.967Z,5.80
2018-07-24T01:52:40.135Z,5.45
2018-07-24T01:55:07.499Z,5.62
2018-07-24T01:57:34.667Z,5.50
2018-07-24T02:00:01.816Z,5.55
2018-07-24T02:02:28.977Z,6.25
2018-07-24T02:04:56.971Z,6.03
2018-07-24T02:07:24.169Z,5.87
2018-07-24T02:09:51.383Z,5.22
2018-07-24T02:12:18.581Z,5.45
2018-07-24T02:14:45.784Z,5.42
2018-07-24T02:17:12.980Z,5.80
2018-07-24T02:19:40.184Z,5.53
2018-07-24T02:22:07.313Z,5.40
2018-07-24T02:24:34.483Z,6.30
2018-07-24T02:27:01.658Z,5.42
2018-07-24T02:29:28.815Z,5.90
2018-07-24T02:31:56.019Z,5.50
2018-07-24T02:34:23.192Z,5.83
2018-07-24T02:36:50.355Z,5.65
2018-07-24T02:39:17.533Z,5.47
2018-07-24T02:41:44.637Z,5.42
2018-07-24T02:44:11.832Z,5.78
2018-07-24T02:46:38.986Z,6.15
2018-07-24T02:49:06.186Z,5.78
2018-07-24T02:51:33.396Z,5.72
2018-07-24T02:54:00.574Z,5.90
2018-07-24T02:56:28.226Z,5.90
2018-07-24T02:58:55.430Z,6.15
2018-07-24T03:01:22.545Z,6.42
2018-07-24T03:03:49.885Z,5.97
2018-07-24T03:06:17.044Z,6.12
2018-07-24T03:08:44.148Z,7.17
2018-07-24T03:11:11.306Z,6.28
2018-07-24T03:13:38.461Z,6.67
2018-07-24T03:16:05.591Z,6.28
2018-07-24T03:18:32.777Z,6.28
2018-07-24T03:20:59.939Z,5.75
2018-07-24T03:23:27.073Z,6.08
2018-07-24T03:25:54.265Z,5.60
2018-07-24T03:28:21.414Z,6.17
2018-07-24T03:30:48.603Z,5.92
2018-07-24T03:33:15.759Z,6.17
2018-07-24T03:35:42.939Z,6.12
2018-07-24T03:38:10.117Z,6.33
2018-07-24T03:40:37.244Z,6.28
2018-07-24T03:43:04.516Z,6.80
2018-07-24T03:45:31.641Z,7.10
2018-07-24T03:47:58.756Z,6.92
2018-07-24T03:50:25.930Z,7.47
2018-07-24T03:52:53.102Z,7.17
2018-07-24T03:55:20.267Z,7.00
2018-07-24T03:57:47.463Z,7.78
2018-07-24T04:00:14.638Z,7.95
2018-07-24T04:02:41.805Z,8.25
2018-07-24T04:05:08.980Z,7.72
2018-07-24T04:07:36.153Z,8.18
2018-07-24T04:10:03.444Z,7.53
2018-07-24T04:12:30.541Z,7.90
2018-07-24T04:14:57.681Z,7.35
2018-07-24T04:17:24.847Z,7.65
2018-07-24T04:19:51.965Z,8.90
2018-07-24T04:22:19.117Z,8.73
2018-07-24T04:24:46.227Z,8.65
2018-07-24T04:27:13.377Z,9.80
2018-07-24T04:29:40.553Z,9.93
2018-07-24T04:32:07.672Z,11.12
2018-07-24T04:34:34.777Z,8.98
2018-07-24T04:37:01.943Z,9.23
2018-07-24T04:39:29.091Z,9.33
2018-07-24T04:41:56.264Z,10.20
2018-07-24T04:44:23.456Z,10.00
2018-07-24T04:46:50.610Z,9.78
2018-07-24T04:49:17.706Z,9.23
2018-07-24T04:51:44.832Z,10.05
2018-07-24T04:54:11.991Z,9.58
2018-07-24T04:56:39.283Z,9.23
2018-07-24T04:59:06.419Z,8.88
2018-07-24T05:01:33.576Z,9.63
2018-07-24T05:04:00.651Z,9.98
2018-07-24T05:06:27.741Z,9.38
2018-07-24T05:08:54.915Z,8.88
2018-07-24T05:11:22.003Z,8.70
2018-07-24T05:13:49.129Z,8.28
2018-07-24T05:16:16.223Z,8.63
2018-07-24T05:18:43.369Z,9.08
2018-07-24T05:21:10.489Z,8.93
2018-07-24T05:23:37.637Z,8.50
2018-07-24T05:26:04.799Z,8.60
2018-07-24T05:28:31.963Z,8.80
2018-07-24T05:30:59.062Z,8.10
2018-07-24T05:33:26.251Z,8.13
2018-07-24T05:35:53.429Z,8.90
2018-07-24T05:38:20.543Z,8.63
2018-07-24T05:40:47.715Z,7.37
2018-07-24T05:43:14.893Z,8.40
2018-07-24T05:45:42.052Z,7.67
2018-07-24T05:48:09.194Z,8.80
2018-07-24T05:50:36.358Z,8.50
2018-07-24T05:53:03.496Z,7.80
2018-07-24T05:55:30.676Z,7.42
2018-07-24T05:57:57.813Z,7.10
2018-07-24T06:00:25.108Z,7.25
2018-07-24T06:02:52.251Z,6.45
2018-07-24T06:05:19.434Z,7.05
2018-07-24T06:07:46.599Z,7.08
2018-07-24T06:10:13.825Z,6.12
2018-07-24T06:12:41.015Z,5.72
2018-07-24T06:15:08.685Z,6.25
2018-07-24T06:17:35.804Z,6.65
2018-07-24T06:20:03.048Z,6.15
2018-07-24T06:22:30.259Z,5.30
2018-07-24T06:24:57.428Z,6.22
2018-07-24T06:27:24.516Z,5.42
2018-07-24T06:29:51.785Z,4.72
2018-07-24T06:32:18.981Z,5.87
2018-07-24T06:44:41.801Z,4.30
2018-07-24T06:47:09.590Z,4.37
2018-07-24T06:49:36.802Z,3.58
2018-07-24T06:52:04.065Z,5.47
2018-07-24T06:54:31.258Z,4.40
2018-07-24T06:56:58.374Z,5.20
2018-07-24T06:59:25.586Z,4.47
2018-07-24T07:01:52.780Z,4.95
2018-07-24T07:04:19.978Z,4.58
2018-07-24T07:06:47.162Z,4.42
2018-07-24T07:09:14.356Z,4.47
2018-07-24T07:11:41.512Z,4.15
2018-07-24T07:14:08.650Z,4.42
2018-07-24T07:16:35.862Z,4.55
2018-07-24T07:19:02.989Z,3.92
2018-07-24T07:21:30.157Z,4.20
2018-07-24T07:23:57.330Z,5.17
2018-07-24T07:26:24.456Z,4.33
2018-07-24T07:28:51.630Z,3.60
2018-07-24T07:31:18.951Z,5.15
2018-07-24T07:33:46.103Z,4.15
2018-07-24T07:36:13.303Z,3.62
2018-07-24T07:38:40.469Z,3.55
2018-07-24T07:41:07.625Z,3.60
2018-07-24T07:43:34.806Z,3.60
2018-07-24T07:46:02.064Z,3.30
2018-07-24T07:48:29.229Z,3.47
2018-07-24T07:50:56.393Z,3.30
2018-07-24T07:53:23.592Z,3.52
2018-07-24T07:55:51.294Z,3.80
2018-07-24T07:58:18.497Z,4.90
2018-07-24T08:00:45.629Z,4.33
2018-07-24T08:03:12.839Z,3.30
2018-07-24T08:05:40.002Z,3.10
2018-07-24T08:08:07.136Z,3.10
2018-07-24T08:10:34.309Z,3.33
2018-07-24T08:13:01.553Z,3.35
2018-07-24T08:15:28.726Z,3.30
2018-07-24T08:17:55.963Z,3.17
2018-07-24T08:20:23.152Z,3.55
2018-07-24T08:22:50.385Z,2.95
2018-07-24T08:25:17.522Z,3.42
2018-07-24T08:27:44.675Z,3.80
2018-07-24T08:30:12.776Z,4.03
2018-07-24T08:32:39.944Z,3.37
2018-07-24T08:35:07.624Z,3.55
2018-07-24T08:37:34.921Z,20.48
2018-07-24T08:40:02.146Z,8.55
2018-07-24T08:42:29.328Z,6.28
2018-07-24T08:44:56.501Z,3.25
2018-07-24T08:47:23.742Z,3.30
2018-07-24T08:49:50.976Z,3.20
2018-07-24T08:52:18.182Z,3.27
2018-07-24T08:54:45.524Z,2.83
2018-07-24T08:57:12.527Z,3.37
2018-07-24T08:59:39.660Z,3.17
2018-07-24T09:02:06.859Z,3.90
2018-07-24T09:04:34.091Z,3.47
2018-07-24T09:07:01.285Z,3.27
2018-07-24T09:09:28.471Z,3.12
2018-07-24T09:11:55.660Z,3.42
2018-07-24T09:14:22.791Z,3.47
2018-07-24T09:16:49.981Z,3.12
2018-07-24T09:19:17.172Z,2.92
2018-07-24T09:21:44.299Z,3.60
2018-07-24T09:24:11.524Z,2.92
2018-07-24T09:26:38.696Z,2.92
2018-07-24T09:29:05.800Z,2.80
2018-07-24T09:31:32.980Z,3.33
2018-07-24T09:34:00.203Z,3.12
2018-07-24T09:36:27.394Z,3.85
2018-07-24T09:38:54.576Z,3.22
2018-07-24T09:41:21.768Z,2.92
2018-07-24T09:43:49.027Z,3.67
2018-07-24T09:46:16.723Z,3.55
2018-07-24T09:48:43.897Z,3.30
2018-07-24T09:51:11.063Z,3.33
2018-07-24T09:53:38.221Z,4.25
2018-07-24T09:56:05.437Z,3.05
2018-07-24T09:58:32.800Z,3.60
2018-07-24T10:01:05.783Z,3.27
2018-07-24T10:03:32.944Z,3.98
2018-07-24T10:06:00.090Z,3.17
2018-07-24T10:08:27.251Z,3.92
2018-07-24T10:10:54.500Z,3.20
2018-07-24T10:13:21.627Z,3.00
2018-07-24T10:15:48.823Z,3.72
2018-07-24T10:18:15.952Z,3.10
2018-07-24T10:20:45.706Z,4.00
2018-07-24T10:23:12.862Z,3.02
2018-07-24T10:25:40.042Z,3.50
2018-07-24T10:28:07.212Z,3.05
2018-07-24T10:30:34.397Z,3.52
2018-07-24T10:33:01.575Z,3.70
2018-07-24T10:35:29.722Z,3.10
2018-07-24T10:37:56.886Z,3.30
2018-07-24T10:40:24.049Z,3.15
2018-07-24T10:42:51.221Z,3.25
2018-07-24T10:45:18.357Z,3.50
2018-07-24T10:47:45.479Z,2.87
2018-07-24T10:50:12.716Z,3.77
2018-07-24T10:52:39.835Z,3.50
2018-07-24T10:55:06.981Z,3.40
2018-07-24T10:57:34.165Z,3.42
2018-07-24T11:00:01.399Z,4.17
2018-07-24T11:02:28.974Z,3.33
2018-07-24T11:04:56.386Z,3.20
2018-07-24T11:07:23.597Z,3.62
2018-07-24T11:09:50.805Z,3.90
2018-07-24T11:12:18.824Z,3.42
2018-07-24T11:14:45.933Z,3.10
2018-07-24T11:17:13.112Z,3.72
2018-07-24T11:19:40.266Z,4.03
2018-07-24T11:22:07.503Z,3.92
2018-07-24T11:24:35.988Z,3.40
2018-07-24T11:27:03.158Z,4.12
2018-07-24T11:29:30.328Z,3.40
2018-07-24T11:31:57.534Z,3.47
2018-07-24T11:34:24.732Z,3.52
2018-07-24T11:36:51.895Z,2.90
2018-07-24T11:39:19.104Z,2.85
2018-07-24T11:41:46.246Z,3.80
2018-07-24T11:44:13.517Z,5.05
2018-07-24T11:46:40.624Z,4.15
2018-07-24T11:49:07.804Z,3.65
2018-07-24T11:51:35.001Z,3.10
2018-07-24T11:54:02.231Z,3.60
2018-07-24T11:56:29.411Z,3.12
2018-07-24T11:58:56.631Z,3.45
2018-07-24T12:01:23.806Z,3.67
2018-07-24T12:03:50.992Z,4.15
2018-07-24T12:06:18.167Z,3.98
2018-07-24T12:08:45.329Z,4.78
2018-07-24T12:11:12.445Z,4.47
2018-07-24T12:13:39.635Z,3.37
2018-07-24T12:16:06.834Z,4.33
2018-07-24T12:18:34.000Z,4.42
2018-07-24T12:21:01.177Z,4.80
2018-07-24T12:23:28.369Z,3.55
2018-07-24T12:25:55.599Z,4.12
2018-07-24T12:28:22.775Z,3.67
2018-07-24T12:30:49.985Z,3.65
2018-07-24T12:33:17.217Z,4.08
2018-07-24T12:35:44.413Z,4.22
2018-07-24T12:38:11.644Z,3.17
2018-07-24T12:40:38.811Z,3.10
2018-07-24T12:43:06.452Z,3.20
2018-07-24T12:45:33.673Z,3.47
2018-07-24T12:48:00.790Z,3.12
2018-07-24T12:50:27.921Z,2.58
2018-07-24T12:52:55.118Z,3.35
2018-07-24T12:55:22.247Z,3.42
2018-07-24T12:57:51.161Z,3.55
2018-07-24T13:00:18.369Z,4.67
2018-07-24T13:02:45.544Z,3.35
2018-07-24T13:05:12.744Z,3.00
2018-07-24T13:07:39.978Z,3.65
2018-07-24T13:10:07.174Z,3.98
2018-07-24T13:12:38.042Z,3.33
2018-07-24T13:15:05.425Z,3.00
2018-07-24T13:17:32.628Z,2.90
2018-07-24T13:20:00.667Z,3.30
2018-07-24T13:22:27.832Z,2.80
2018-07-24T13:24:55.025Z,3.05
2018-07-24T13:27:22.192Z,3.52
2018-07-24T13:29:49.364Z,3.52
2018-07-24T13:32:16.614Z,3.62
2018-07-24T13:34:43.716Z,3.08
2018-07-24T13:37:10.934Z,3.15
2018-07-24T13:39:38.113Z,2.75
2018-07-24T13:42:05.227Z,2.95
2018-07-24T13:44:32.425Z,3.33
2018-07-24T13:46:59.555Z,2.65
2018-07-24T13:49:26.686Z,2.60
2018-07-24T13:51:53.929Z,3.08
2018-07-24T13:54:21.110Z,3.10
2018-07-24T13:56:48.298Z,3.27
2018-07-24T13:59:15.475Z,2.98
2018-07-24T14:01:42.647Z,3.80
2018-07-24T14:04:10.018Z,3.35
2018-07-24T14:06:37.213Z,3.33
2018-07-24T14:09:05.682Z,3.90
2018-07-24T14:11:32.932Z,2.80
2018-07-24T14:14:00.165Z,3.17
2018-07-24T14:16:27.289Z,3.55
2018-07-24T14:18:54.476Z,3.08
2018-07-24T14:21:21.684Z,2.62
2018-07-24T14:23:48.855Z,2.62
2018-07-24T14:26:16.018Z,3.55
2018-07-24T14:28:43.182Z,2.90
2018-07-24T14:31:10.514Z,3.27
2018-07-24T14:33:37.697Z,2.83
2018-07-24T14:36:04.903Z,3.12
2018-07-24T14:38:32.086Z,2.35
2018-07-24T14:40:59.636Z,3.00
2018-07-24T14:43:26.832Z,2.50
2018-07-24T14:45:54.052Z,3.45
2018-07-24T14:48:21.272Z,3.12
2018-07-24T14:50:48.448Z,2.50
2018-07-24T14:53:15.569Z,2.60
2018-07-24T14:55:42.766Z,2.65
2018-07-24T14:58:09.946Z,2.95
2018-07-24T15:00:37.085Z,2.87
2018-07-24T15:03:04.492Z,3.60
2018-07-24T15:05:31.650Z,2.67
2018-07-24T15:07:58.756Z,2.70
2018-07-24T15:10:25.968Z,2.58
2018-07-24T15:12:53.181Z,2.65
2018-07-24T15:15:20.383Z,3.25
2018-07-24T15:17:47.525Z,3.40
2018-07-24T15:20:14.669Z,3.00
2018-07-24T15:22:41.790Z,3.65
2018-07-24T15:25:08.982Z,2.90
2018-07-24T15:27:36.094Z,3.52
2018-07-24T15:30:03.799Z,3.10
2018-07-24T15:32:30.988Z,2.72
2018-07-24T15:34:58.210Z,3.25
2018-07-24T15:37:26.076Z,2.90
2018-07-24T15:39:53.280Z,2.72
2018-07-24T15:42:20.461Z,3.08
2018-07-24T15:44:47.680Z,2.80
2018-07-24T15:47:14.833Z,2.85
2018-07-24T15:49:42.028Z,3.15
2018-07-24T15:52:09.235Z,2.70
2018-07-24T15:54:37.395Z,3.22
2018-07-24T15:57:04.598Z,3.30
2018-07-24T15:59:31.802Z,2.83
2018-07-24T16:01:59.059Z,3.50
2018-07-24T16:04:26.255Z,3.25
2018-07-24T16:06:53.517Z,3.45
2018-07-24T16:09:20.611Z,3.25
2018-07-24T16:11:48.353Z,3.27
2018-07-24T16:14:15.520Z,3.22
2018-07-24T16:16:42.702Z,3.52
2018-07-24T16:19:09.907Z,3.30
2018-07-24T16:21:37.195Z,3.95
2018-07-24T16:24:04.569Z,4.28
2018-07-24T16:26:31.811Z,3.40
2018-07-24T16:28:58.888Z,4.45
2018-07-24T16:31:26.068Z,3.02
2018-07-24T16:33:53.252Z,3.10
2018-07-24T16:36:21.168Z,3.00
2018-07-24T16:38:48.266Z,3.22
2018-07-24T16:41:15.397Z,3.65
2018-07-24T16:43:42.545Z,3.95
2018-07-24T16:46:09.728Z,3.77
2018-07-24T16:48:36.861Z,3.52
2018-07-24T16:51:04.023Z,3.85
2018-07-24T16:53:31.180Z,3.42
2018-07-24T16:55:58.391Z,3.58
2018-07-24T16:58:25.685Z,3.50
2018-07-24T17:00:52.925Z,3.30
2018-07-24T17:03:20.097Z,3.33
2018-07-24T17:05:48.457Z,3.50
2018-07-24T17:08:15.732Z,4.05
2018-07-24T17:10:42.853Z,3.58
2018-07-24T17:13:11.228Z,3.70
2018-07-24T17:15:38.404Z,4.03
2018-07-24T17:18:05.555Z,3.10
2018-07-24T17:20:32.937Z,3.92
2018-07-24T17:23:00.992Z,4.12
2018-07-24T17:25:29.622Z,3.58
2018-07-24T17:27:57.199Z,3.58
2018-07-24T17:30:24.534Z,2.87
2018-07-24T17:32:51.682Z,3.20
2018-07-24T17:35:18.918Z,6.03
2018-07-24T17:37:46.274Z,5.17
2018-07-24T17:40:13.432Z,3.70
2018-07-24T17:42:40.556Z,4.35
2018-07-24T17:45:07.662Z,3.10
2018-07-24T17:47:34.832Z,4.90
2018-07-24T17:50:01.953Z,4.87
2018-07-24T17:52:29.634Z,4.25
2018-07-24T17:54:56.836Z,4.40
2018-07-24T17:57:23.954Z,4.30
2018-07-24T17:59:51.162Z,3.60
2018-07-24T18:02:18.386Z,4.05
2018-07-24T18:04:45.565Z,5.35
2018-07-24T18:07:12.753Z,3.80
2018-07-24T18:09:39.883Z,3.92
2018-07-24T18:12:07.094Z,4.08
2018-07-24T18:14:34.289Z,3.45
2018-07-24T18:17:01.544Z,3.42
2018-07-24T18:19:28.803Z,4.10
2018-07-24T18:21:55.928Z,4.15
2018-07-24T18:24:23.190Z,4.10
2018-07-24T18:26:50.422Z,4.33
2018-07-24T18:29:17.615Z,4.17
2018-07-24T18:31:44.834Z,3.58
2018-07-24T18:34:11.975Z,4.03
2018-07-24T18:36:39.173Z,3.95
2018-07-24T18:39:06.868Z,4.37
2018-07-24T18:41:34.235Z,4.75
2018-07-24T18:44:01.432Z,6.00
2018-07-24T18:46:28.625Z,5.83
2018-07-24T18:48:55.816Z,4.12
2018-07-24T18:51:22.917Z,4.75
2018-07-24T18:53:50.112Z,3.92
2018-07-24T18:56:17.298Z,4.35
2018-07-24T18:58:44.515Z,3.87
2018-07-24T19:01:12.503Z,4.80
2018-07-24T19:03:39.559Z,4.45
2018-07-24T19:06:06.696Z,4.22
2018-07-24T19:08:33.870Z,4.37
2018-07-24T19:11:01.224Z,3.98
2018-07-24T19:13:28.385Z,4.00
2018-07-24T19:15:55.539Z,4.67
2018-07-24T19:18:22.682Z,4.10
2018-07-24T19:20:49.859Z,4.40
2018-07-24T19:23:17.054Z,5.40
2018-07-24T19:25:44.627Z,4.80
2018-07-24T19:28:11.935Z,4.78
2018-07-24T19:30:39.201Z,4.87
2018-07-24T19:33:06.531Z,4.30
2018-07-24T19:35:33.888Z,5.03
2018-07-24T19:38:01.202Z,4.35
2018-07-24T19:40:28.488Z,4.37
2018-07-24T19:42:55.835Z,4.67
2018-07-24T19:45:23.160Z,4.80
2018-07-24T19:47:50.495Z,5.30
2018-07-24T19:50:17.791Z,4.70
2018-07-24T19:52:45.109Z,4.53
2018-07-24T19:55:12.475Z,4.40
2018-07-24T19:57:39.919Z,5.37
2018-07-24T20:00:07.975Z,4.72
2018-07-24T20:02:35.349Z,4.83
2018-07-24T20:05:02.569Z,4.78
2018-07-24T20:07:29.900Z,4.55
2018-07-24T20:09:57.174Z,4.10
2018-07-24T20:12:24.462Z,4.00
2018-07-24T20:14:51.868Z,5.00
2018-07-24T20:17:19.190Z,4.53
2018-07-24T20:19:46.476Z,4.62
2018-07-24T20:22:13.788Z,4.42
2018-07-24T20:24:41.139Z,4.28
2018-07-24T20:27:08.472Z,4.42
2018-07-24T20:29:35.756Z,4.28
2018-07-24T20:32:03.071Z,4.28
2018-07-24T20:34:30.426Z,4.67
2018-07-24T20:36:57.713Z,4.80
2018-07-24T20:39:24.944Z,4.58
2018-07-24T20:41:52.143Z,5.10
2018-07-24T20:44:19.564Z,4.95
2018-07-24T20:46:46.765Z,5.35
2018-07-24T20:49:14.899Z,4.40
2018-07-24T20:51:42.126Z,5.85
2018-07-24T20:54:09.335Z,4.53
2018-07-24T20:56:36.468Z,5.03
2018-07-24T20:59:03.648Z,5.50
2018-07-24T21:01:30.800Z,4.75
2018-07-24T21:03:57.956Z,4.05
2018-07-24T21:06:28.695Z,4.17
2018-07-24T21:08:55.873Z,4.75
2018-07-24T21:11:23.043Z,4.47
2018-07-24T21:13:50.226Z,4.53
2018-07-24T21:16:17.367Z,4.35
2018-07-24T21:18:44.547Z,4.08
2018-07-24T21:21:14.115Z,4.25
2018-07-24T21:23:41.439Z,3.90
2018-07-24T21:26:08.623Z,4.65
2018-07-24T21:28:35.761Z,4.25
2018-07-24T21:31:02.893Z,4.65
2018-07-24T21:33:30.001Z,4.75
2018-07-24T21:35:57.155Z,3.90
2018-07-24T21:38:24.264Z,4.03
2018-07-24T21:40:51.366Z,4.12
2018-07-24T21:43:18.544Z,3.70
2018-07-24T21:45:45.701Z,4.47
2018-07-24T21:48:12.809Z,4.70
2018-07-24T21:50:39.980Z,3.75
2018-07-24T21:53:07.447Z,3.70
2018-07-24T21:55:34.939Z,3.85
2018-07-24T21:58:02.084Z,3.98
2018-07-24T22:00:35.781Z,4.25
2018-07-24T22:03:03.924Z,3.77
2018-07-24T22:05:31.293Z,3.50
2018-07-24T22:07:58.565Z,3.02
2018-07-24T22:10:25.686Z,3.50
2018-07-24T22:12:53.237Z,3.35
2018-07-24T22:15:22.983Z,4.03
2018-07-24T22:17:50.125Z,3.52
2018-07-24T22:20:17.597Z,3.98
2018-07-24T22:22:44.750Z,4.53
2018-07-24T22:25:12.991Z,3.52
2018-07-24T22:27:40.141Z,3.50
2018-07-24T22:30:08.624Z,4.17
2018-07-24T22:32:35.829Z,3.62
2018-07-24T22:35:03.057Z,3.47
2018-07-24T22:37:30.205Z,4.05
2018-07-24T22:39:57.299Z,3.70
2018-07-24T22:42:24.413Z,3.65
2018-07-24T22:44:51.603Z,3.42
2018-07-24T22:47:18.676Z,3.10
2018-07-24T22:49:45.788Z,3.40
2018-07-24T22:52:12.959Z,3.60
2018-07-24T22:54:40.076Z,3.50
2018-07-24T22:57:07.484Z,3.95
2018-07-24T22:59:34.637Z,3.30
2018-07-24T23:02:01.714Z,3.58
2018-07-24T23:04:28.839Z,3.85
2018-07-24T23:06:56.028Z,4.03
2018-07-24T23:09:23.138Z,3.67
2018-07-24T23:11:50.240Z,3.95
2018-07-24T23:14:17.396Z,3.60
2018-07-24T23:16:44.570Z,3.33
2018-07-24T23:19:11.718Z,3.60
2018-07-24T23:21:38.858Z,4.20
2018-07-24T23:24:05.984Z,3.80
2018-07-24T23:26:33.073Z,3.70
2018-07-24T23:29:00.178Z,4.00
2018-07-24T23:31:27.332Z,3.83
2018-07-24T23:33:54.502Z,3.70
2018-07-24T23:36:21.668Z,3.30
2018-07-24T23:38:48.847Z,3.62
2018-07-24T23:41:16.011Z,3.65
2018-07-24T23:43:43.132Z,4.00
2018-07-24T23:46:10.209Z,3.90
2018-07-24T23:48:37.423Z,3.92
2018-07-24T23:51:04.574Z,4.10
2018-07-24T23:53:31.696Z,3.95
2018-07-24T23:55:58.826Z,4.03
2018-07-24T23:58:26.022Z,4.10
